METAR Data
IDs: Format: Raw Decoded Include TAF

Data at: 0621 UTC 15 Nov 2018

ETSI 150605Z 13004KT 6000 OVC008 05/04 Q1028 GRN GRN TEMPO YLO